sensor_id;sensor_type;location;lat;lon;timestamp;pressure;altitude;pressure_sealevel;temperature;humidity
43701;BME280;58809;47.984;7.964;2023-05-09T00:00:30;97506.97;;;13.08;100.00
43701;BME280;58809;47.984;7.964;2023-05-09T00:03:32;97501.91;;;13.14;100.00
43701;BME280;58809;47.984;7.964;2023-05-09T00:06:33;97500.88;;;13.15;100.00
43701;BME280;58809;47.984;7.964;2023-05-09T00:09:35;97503.28;;;13.09;100.00
43701;BME280;58809;47.984;7.964;2023-05-09T00:12:37;97501.47;;;13.10;100.00
43701;BME280;58809;47.984;7.964;2023-05-09T00:15:38;97499.81;;;13.09;100.00
43701;BME280;58809;47.984;7.964;2023-05-09T00:18:40;97506.34;;;13.06;100.00
43701;BME280;58809;47.984;7.964;2023-05-09T00:21:42;97490.00;;;13.09;100.00
43701;BME280;58809;47.984;7.964;2023-05-09T00:24:44;97488.56;;;13.07;100.00
43701;BME280;58809;47.984;7.964;2023-05-09T00:27:45;97487.16;;;13.11;100.00
43701;BME280;58809;47.984;7.964;2023-05-09T00:30:47;97476.59;;;13.18;100.00
43701;BME280;58809;47.984;7.964;2023-05-09T00:33:48;97476.41;;;13.19;100.00
43701;BME280;58809;47.984;7.964;2023-05-09T00:36:50;97461.66;;;13.17;100.00
43701;BME280;58809;47.984;7.964;2023-05-09T00:39:51;97466.53;;;13.13;100.00
43701;BME280;58809;47.984;7.964;2023-05-09T00:42:53;97455.22;;;13.04;100.00
43701;BME280;58809;47.984;7.964;2023-05-09T00:45:56;97458.25;;;13.01;100.00
43701;BME280;58809;47.984;7.964;2023-05-09T00:48:58;97458.44;;;13.00;100.00
43701;BME280;58809;47.984;7.964;2023-05-09T00:52:00;97453.50;;;12.97;100.00
43701;BME280;58809;47.984;7.964;2023-05-09T00:55:03;97451.44;;;12.92;100.00
43701;BME280;58809;47.984;7.964;2023-05-09T00:58:05;97446.94;;;12.93;100.00
43701;BME280;58809;47.984;7.964;2023-05-09T01:01:07;97446.31;;;12.90;100.00
43701;BME280;58809;47.984;7.964;2023-05-09T01:04:09;97437.06;;;12.86;100.00
43701;BME280;58809;47.984;7.964;2023-05-09T01:10:57;97438.47;;;12.82;100.00
43701;BME280;58809;47.984;7.964;2023-05-09T01:14:11;97444.59;;;12.83;100.00
43701;BME280;58809;47.984;7.964;2023-05-09T01:17:30;97433.22;;;12.89;100.00
43701;BME280;58809;47.984;7.964;2023-05-09T01:20:37;97429.56;;;12.90;100.00
43701;BME280;58809;47.984;7.964;2023-05-09T01:30:06;97431.88;;;13.00;100.00
43701;BME280;58809;47.984;7.964;2023-05-09T01:33:13;97434.16;;;13.03;100.00
43701;BME280;58809;47.984;7.964;2023-05-09T01:36:18;97428.84;;;13.03;100.00
43701;BME280;58809;47.984;7.964;2023-05-09T01:39:23;97423.91;;;13.00;100.00
43701;BME280;58809;47.984;7.964;2023-05-09T01:42:27;97426.72;;;12.92;100.00
43701;BME280;58809;47.984;7.964;2023-05-09T01:45:31;97420.50;;;12.84;100.00
43701;BME280;58809;47.984;7.964;2023-05-09T01:48:36;97418.81;;;12.77;100.00
43701;BME280;58809;47.984;7.964;2023-05-09T01:51:38;97418.09;;;12.68;100.00
43701;BME280;58809;47.984;7.964;2023-05-09T01:54:46;97417.41;;;12.59;100.00
43701;BME280;58809;47.984;7.964;2023-05-09T01:57:49;97409.00;;;12.56;100.00
43701;BME280;58809;47.984;7.964;2023-05-09T02:00:51;97407.66;;;12.45;100.00
43701;BME280;58809;47.984;7.964;2023-05-09T02:03:53;97407.97;;;12.35;100.00
43701;BME280;58809;47.984;7.964;2023-05-09T02:06:56;97410.16;;;12.31;100.00
43701;BME280;58809;47.984;7.964;2023-05-09T02:09:59;97402.38;;;12.30;100.00
43701;BME280;58809;47.984;7.964;2023-05-09T02:13:01;97388.59;;;12.20;100.00
43701;BME280;58809;47.984;7.964;2023-05-09T02:16:03;97387.31;;;12.16;100.00
43701;BME280;58809;47.984;7.964;2023-05-09T02:19:06;97382.41;;;12.12;100.00
43701;BME280;58809;47.984;7.964;2023-05-09T02:22:09;97387.06;;;12.10;100.00
43701;BME280;58809;47.984;7.964;2023-05-09T02:25:12;97381.56;;;12.12;100.00
43701;BME280;58809;47.984;7.964;2023-05-09T02:28:18;97378.84;;;12.05;100.00
43701;BME280;58809;47.984;7.964;2023-05-09T02:31:21;97383.25;;;11.98;100.00
43701;BME280;58809;47.984;7.964;2023-05-09T02:34:24;97390.13;;;11.92;100.00
43701;BME280;58809;47.984;7.964;2023-05-09T02:37:26;97387.66;;;11.91;100.00
43701;BME280;58809;47.984;7.964;2023-05-09T02:40:29;97390.44;;;11.89;100.00
43701;BME280;58809;47.984;7.964;2023-05-09T02:43:30;97390.00;;;11.86;100.00
43701;BME280;58809;47.984;7.964;2023-05-09T02:46:32;97384.31;;;11.74;100.00
43701;BME280;58809;47.984;7.964;2023-05-09T02:49:33;97372.84;;;11.67;100.00
43701;BME280;58809;47.984;7.964;2023-05-09T02:52:37;97378.03;;;11.60;100.00
43701;BME280;58809;47.984;7.964;2023-05-09T02:55:38;97387.19;;;11.58;100.00
43701;BME280;58809;47.984;7.964;2023-05-09T02:58:40;97375.84;;;11.64;100.00
43701;BME280;58809;47.984;7.964;2023-05-09T03:01:41;97372.91;;;11.59;100.00
43701;BME280;58809;47.984;7.964;2023-05-09T03:04:44;97371.81;;;11.53;100.00
43701;BME280;58809;47.984;7.964;2023-05-09T03:07:45;97381.69;;;11.59;100.00
43701;BME280;58809;47.984;7.964;2023-05-09T03:10:47;97385.63;;;11.63;100.00
43701;BME280;58809;47.984;7.964;2023-05-09T03:13:49;97385.25;;;11.66;100.00
43701;BME280;58809;47.984;7.964;2023-05-09T03:16:51;97377.28;;;11.66;100.00
43701;BME280;58809;47.984;7.964;2023-05-09T03:19:58;97367.44;;;11.60;100.00
43701;BME280;58809;47.984;7.964;2023-05-09T03:23:04;97366.63;;;11.60;100.00
43701;BME280;58809;47.984;7.964;2023-05-09T03:26:05;97363.59;;;11.63;100.00
43701;BME280;58809;47.984;7.964;2023-05-09T03:29:07;97360.03;;;11.70;100.00
43701;BME280;58809;47.984;7.964;2023-05-09T03:32:08;97361.59;;;11.80;100.00
43701;BME280;58809;47.984;7.964;2023-05-09T03:35:10;97363.13;;;11.89;100.00
43701;BME280;58809;47.984;7.964;2023-05-09T03:38:12;97363.66;;;11.99;100.00
43701;BME280;58809;47.984;7.964;2023-05-09T03:41:15;97364.94;;;12.03;100.00
43701;BME280;58809;47.984;7.964;2023-05-09T03:44:19;97367.41;;;12.05;100.00
43701;BME280;58809;47.984;7.964;2023-05-09T03:47:20;97368.44;;;12.04;100.00
43701;BME280;58809;47.984;7.964;2023-05-09T03:50:22;97360.06;;;12.07;100.00
43701;BME280;58809;47.984;7.964;2023-05-09T03:53:26;97364.09;;;12.18;100.00
43701;BME280;58809;47.984;7.964;2023-05-09T03:56:28;97365.81;;;12.25;100.00
43701;BME280;58809;47.984;7.964;2023-05-09T03:59:30;97359.31;;;12.28;100.00
43701;BME280;58809;47.984;7.964;2023-05-09T04:02:32;97353.56;;;12.24;100.00
43701;BME280;58809;47.984;7.964;2023-05-09T04:05:34;97354.53;;;12.23;100.00
43701;BME280;58809;47.984;7.964;2023-05-09T04:08:38;97360.94;;;12.29;100.00
43701;BME280;58809;47.984;7.964;2023-05-09T04:11:40;97364.88;;;12.33;100.00
43701;BME280;58809;47.984;7.964;2023-05-09T04:14:45;97359.00;;;12.38;100.00
43701;BME280;58809;47.984;7.964;2023-05-09T04:17:50;97366.41;;;12.42;100.00
43701;BME280;58809;47.984;7.964;2023-05-09T04:20:51;97358.47;;;12.49;100.00
43701;BME280;58809;47.984;7.964;2023-05-09T04:23:54;97357.56;;;12.57;100.00
43701;BME280;58809;47.984;7.964;2023-05-09T04:27:03;97367.97;;;12.58;100.00
43701;BME280;58809;47.984;7.964;2023-05-09T04:30:05;97361.09;;;12.64;100.00
43701;BME280;58809;47.984;7.964;2023-05-09T04:33:08;97363.97;;;12.69;100.00
43701;BME280;58809;47.984;7.964;2023-05-09T04:36:09;97362.84;;;12.78;100.00
43701;BME280;58809;47.984;7.964;2023-05-09T04:39:12;97359.63;;;12.83;100.00
43701;BME280;58809;47.984;7.964;2023-05-09T04:42:21;97357.66;;;12.92;100.00
43701;BME280;58809;47.984;7.964;2023-05-09T04:45:23;97352.78;;;12.95;100.00
43701;BME280;58809;47.984;7.964;2023-05-09T04:48:24;97351.56;;;12.98;100.00
43701;BME280;58809;47.984;7.964;2023-05-09T04:51:26;97351.03;;;13.09;100.00
43701;BME280;58809;47.984;7.964;2023-05-09T04:54:27;97353.75;;;13.16;100.00
43701;BME280;58809;47.984;7.964;2023-05-09T04:57:29;97348.88;;;13.19;100.00
43701;BME280;58809;47.984;7.964;2023-05-09T05:00:32;97344.81;;;13.23;100.00
43701;BME280;58809;47.984;7.964;2023-05-09T05:03:33;97342.16;;;13.23;100.00
43701;BME280;58809;47.984;7.964;2023-05-09T05:06:35;97344.00;;;13.29;100.00
43701;BME280;58809;47.984;7.964;2023-05-09T05:09:37;97333.66;;;13.35;100.00
43701;BME280;58809;47.984;7.964;2023-05-09T05:12:39;97344.16;;;13.43;100.00
43701;BME280;58809;47.984;7.964;2023-05-09T05:15:43;97352.75;;;13.52;100.00
43701;BME280;58809;47.984;7.964;2023-05-09T05:18:47;97340.34;;;13.59;100.00
43701;BME280;58809;47.984;7.964;2023-05-09T05:21:49;97342.84;;;13.67;100.00
43701;BME280;58809;47.984;7.964;2023-05-09T05:24:51;97337.94;;;13.71;100.00
43701;BME280;58809;47.984;7.964;2023-05-09T05:27:53;97338.59;;;13.79;100.00
43701;BME280;58809;47.984;7.964;2023-05-09T05:30:54;97339.47;;;13.93;100.00
43701;BME280;58809;47.984;7.964;2023-05-09T05:33:56;97340.13;;;14.02;100.00
43701;BME280;58809;47.984;7.964;2023-05-09T05:36:58;97335.66;;;14.16;100.00
43701;BME280;58809;47.984;7.964;2023-05-09T05:40:00;97325.06;;;14.29;100.00
43701;BME280;58809;47.984;7.964;2023-05-09T05:43:01;97323.03;;;14.44;100.00
43701;BME280;58809;47.984;7.964;2023-05-09T05:46:05;97312.81;;;14.55;100.00
43701;BME280;58809;47.984;7.964;2023-05-09T05:49:08;97314.84;;;14.53;100.00
43701;BME280;58809;47.984;7.964;2023-05-09T05:52:09;97324.50;;;14.60;100.00
43701;BME280;58809;47.984;7.964;2023-05-09T05:55:11;97324.91;;;14.71;100.00
43701;BME280;58809;47.984;7.964;2023-05-09T05:58:13;97321.66;;;14.82;100.00
43701;BME280;58809;47.984;7.964;2023-05-09T06:01:15;97315.06;;;14.98;100.00
43701;BME280;58809;47.984;7.964;2023-05-09T06:04:16;97306.06;;;15.06;100.00
43701;BME280;58809;47.984;7.964;2023-05-09T06:07:18;97301.31;;;15.14;100.00
43701;BME280;58809;47.984;7.964;2023-05-09T06:10:20;97297.41;;;15.24;100.00
43701;BME280;58809;47.984;7.964;2023-05-09T06:13:22;97292.88;;;15.31;100.00
43701;BME280;58809;47.984;7.964;2023-05-09T06:16:34;97297.81;;;15.34;100.00
43701;BME280;58809;47.984;7.964;2023-05-09T06:19:35;97296.13;;;15.46;100.00
43701;BME280;58809;47.984;7.964;2023-05-09T06:22:38;97293.22;;;15.61;100.00
43701;BME280;58809;47.984;7.964;2023-05-09T06:25:39;97281.50;;;15.75;100.00
43701;BME280;58809;47.984;7.964;2023-05-09T06:28:41;97283.44;;;15.93;100.00
43701;BME280;58809;47.984;7.964;2023-05-09T06:31:42;97281.56;;;16.01;100.00
43701;BME280;58809;47.984;7.964;2023-05-09T06:34:44;97276.19;;;16.07;100.00
43701;BME280;58809;47.984;7.964;2023-05-09T06:37:45;97280.91;;;16.12;100.00
43701;BME280;58809;47.984;7.964;2023-05-09T06:40:49;97278.16;;;16.25;100.00
43701;BME280;58809;47.984;7.964;2023-05-09T06:43:51;97271.09;;;16.38;100.00
43701;BME280;58809;47.984;7.964;2023-05-09T06:46:53;97268.41;;;16.63;100.00
43701;BME280;58809;47.984;7.964;2023-05-09T06:49:54;97261.16;;;16.70;100.00
43701;BME280;58809;47.984;7.964;2023-05-09T06:52:56;97261.53;;;16.73;100.00
43701;BME280;58809;47.984;7.964;2023-05-09T06:55:57;97257.09;;;16.92;100.00
43701;BME280;58809;47.984;7.964;2023-05-09T06:58:59;97247.91;;;17.07;100.00
43701;BME280;58809;47.984;7.964;2023-05-09T07:02:01;97239.38;;;17.35;100.00
43701;BME280;58809;47.984;7.964;2023-05-09T07:05:02;97243.53;;;17.49;100.00
43701;BME280;58809;47.984;7.964;2023-05-09T07:08:04;97240.03;;;17.49;99.37
43701;BME280;58809;47.984;7.964;2023-05-09T07:11:06;97235.00;;;17.41;99.18
43701;BME280;58809;47.984;7.964;2023-05-09T07:14:07;97231.19;;;17.30;99.20
43701;BME280;58809;47.984;7.964;2023-05-09T07:17:09;97231.56;;;17.34;99.14
43701;BME280;58809;47.984;7.964;2023-05-09T07:20:24;97226.44;;;17.50;98.25
43701;BME280;58809;47.984;7.964;2023-05-09T07:23:25;97224.72;;;17.56;97.17
43701;BME280;58809;47.984;7.964;2023-05-09T07:26:27;97214.16;;;17.61;97.22
43701;BME280;58809;47.984;7.964;2023-05-09T07:29:29;97204.91;;;17.76;97.06
43701;BME280;58809;47.984;7.964;2023-05-09T07:32:30;97203.59;;;17.85;95.36
43701;BME280;58809;47.984;7.964;2023-05-09T07:35:32;97202.06;;;17.89;94.52
43701;BME280;58809;47.984;7.964;2023-05-09T07:38:33;97196.34;;;18.16;93.02
43701;BME280;58809;47.984;7.964;2023-05-09T07:41:35;97194.38;;;18.35;91.54
43701;BME280;58809;47.984;7.964;2023-05-09T07:44:36;97184.84;;;18.51;90.17
43701;BME280;58809;47.984;7.964;2023-05-09T07:47:38;97183.22;;;18.50;88.54
43701;BME280;58809;47.984;7.964;2023-05-09T07:50:39;97187.75;;;18.49;88.25
43701;BME280;58809;47.984;7.964;2023-05-09T07:53:41;97189.09;;;18.82;86.63
43701;BME280;58809;47.984;7.964;2023-05-09T07:56:42;97187.69;;;18.91;85.44
43701;BME280;58809;47.984;7.964;2023-05-09T07:59:44;97178.44;;;19.11;84.30
43701;BME280;58809;47.984;7.964;2023-05-09T08:02:45;97173.38;;;19.26;82.50
43701;BME280;58809;47.984;7.964;2023-05-09T08:05:47;97157.28;;;19.38;81.34
43701;BME280;58809;47.984;7.964;2023-05-09T08:08:49;97153.75;;;19.37;81.51
43701;BME280;58809;47.984;7.964;2023-05-09T08:11:50;97153.22;;;19.23;82.41
43701;BME280;58809;47.984;7.964;2023-05-09T08:14:52;97144.44;;;18.99;83.47
43701;BME280;58809;47.984;7.964;2023-05-09T08:17:56;97142.91;;;18.92;84.90
43701;BME280;58809;47.984;7.964;2023-05-09T08:21:10;97134.22;;;19.13;83.61
43701;BME280;58809;47.984;7.964;2023-05-09T08:24:12;97132.84;;;19.39;82.36
43701;BME280;58809;47.984;7.964;2023-05-09T08:27:13;97137.09;;;19.64;80.54
43701;BME280;58809;47.984;7.964;2023-05-09T08:30:16;97135.31;;;19.70;80.02
43701;BME280;58809;47.984;7.964;2023-05-09T08:33:17;97129.19;;;19.86;79.62
43701;BME280;58809;47.984;7.964;2023-05-09T08:36:19;97120.00;;;19.99;78.88
43701;BME280;58809;47.984;7.964;2023-05-09T08:39:21;97117.22;;;20.11;77.85
43701;BME280;58809;47.984;7.964;2023-05-09T08:42:23;97116.25;;;20.00;77.72
43701;BME280;58809;47.984;7.964;2023-05-09T08:45:28;97109.66;;;20.25;77.74
43701;BME280;58809;47.984;7.964;2023-05-09T08:48:30;97108.41;;;20.49;76.18
43701;BME280;58809;47.984;7.964;2023-05-09T08:51:36;97101.09;;;20.45;74.88
43701;BME280;58809;47.984;7.964;2023-05-09T08:54:38;97104.19;;;20.53;73.64
43701;BME280;58809;47.984;7.964;2023-05-09T08:57:40;97106.72;;;20.43;72.69
43701;BME280;58809;47.984;7.964;2023-05-09T09:00:42;97099.81;;;20.30;72.25
43701;BME280;58809;47.984;7.964;2023-05-09T09:03:44;97093.06;;;20.28;71.79
43701;BME280;58809;47.984;7.964;2023-05-09T09:06:50;97088.16;;;20.25;71.45
43701;BME280;58809;47.984;7.964;2023-05-09T09:09:54;97089.28;;;20.29;70.61
43701;BME280;58809;47.984;7.964;2023-05-09T09:12:58;97088.56;;;20.33;70.50
43701;BME280;58809;47.984;7.964;2023-05-09T09:16:00;97084.41;;;20.43;68.90
43701;BME280;58809;47.984;7.964;2023-05-09T09:19:03;97079.72;;;20.72;67.82
43701;BME280;58809;47.984;7.964;2023-05-09T09:22:13;97078.22;;;20.81;66.14
43701;BME280;58809;47.984;7.964;2023-05-09T09:25:16;97068.91;;;20.89;65.09
43701;BME280;58809;47.984;7.964;2023-05-09T09:28:17;97055.38;;;21.06;64.06
43701;BME280;58809;47.984;7.964;2023-05-09T09:31:25;97045.94;;;21.03;64.04
43701;BME280;58809;47.984;7.964;2023-05-09T09:34:28;97044.69;;;21.11;63.46
43701;BME280;58809;47.984;7.964;2023-05-09T09:37:32;97052.44;;;21.07;63.75
43701;BME280;58809;47.984;7.964;2023-05-09T09:40:34;97043.25;;;21.03;63.52
43701;BME280;58809;47.984;7.964;2023-05-09T09:43:44;97039.34;;;21.16;63.22
43701;BME280;58809;47.984;7.964;2023-05-09T09:46:51;97034.72;;;21.39;63.55
43701;BME280;58809;47.984;7.964;2023-05-09T09:49:52;97036.16;;;21.73;62.52
43701;BME280;58809;47.984;7.964;2023-05-09T09:52:55;97022.53;;;21.90;61.79
43701;BME280;58809;47.984;7.964;2023-05-09T09:55:56;97023.13;;;21.92;61.37
43701;BME280;58809;47.984;7.964;2023-05-09T09:59:07;97019.59;;;21.92;61.19
43701;BME280;58809;47.984;7.964;2023-05-09T10:02:09;97014.19;;;21.92;61.54
43701;BME280;58809;47.984;7.964;2023-05-09T10:05:21;97010.63;;;22.19;61.09
43701;BME280;58809;47.984;7.964;2023-05-09T10:08:23;97007.53;;;22.42;60.88
43701;BME280;58809;47.984;7.964;2023-05-09T10:11:25;96999.88;;;22.24;60.64
43701;BME280;58809;47.984;7.964;2023-05-09T10:14:26;97002.63;;;22.34;60.64
43701;BME280;58809;47.984;7.964;2023-05-09T10:17:28;96979.88;;;22.15;60.69
43701;BME280;58809;47.984;7.964;2023-05-09T10:20:32;96987.47;;;22.23;61.44
43701;BME280;58809;47.984;7.964;2023-05-09T10:23:36;96982.50;;;22.04;61.09
43701;BME280;58809;47.984;7.964;2023-05-09T10:26:39;96979.94;;;21.82;61.91
43701;BME280;58809;47.984;7.964;2023-05-09T10:29:50;96970.81;;;21.88;61.59
43701;BME280;58809;47.984;7.964;2023-05-09T10:33:06;96975.88;;;21.80;62.20
43701;BME280;58809;47.984;7.964;2023-05-09T10:36:08;96965.03;;;21.69;63.32
43701;BME280;58809;47.984;7.964;2023-05-09T10:39:11;96964.34;;;21.47;63.92
43701;BME280;58809;47.984;7.964;2023-05-09T10:42:12;96953.47;;;21.42;64.23
43701;BME280;58809;47.984;7.964;2023-05-09T10:45:14;96957.19;;;21.35;64.72
43701;BME280;58809;47.984;7.964;2023-05-09T10:48:16;96942.06;;;21.29;65.06
43701;BME280;58809;47.984;7.964;2023-05-09T10:51:18;96949.53;;;21.49;64.83
43701;BME280;58809;47.984;7.964;2023-05-09T10:54:27;96939.69;;;21.65;63.54
43701;BME280;58809;47.984;7.964;2023-05-09T10:57:31;96938.03;;;22.02;62.81
43701;BME280;58809;47.984;7.964;2023-05-09T11:00:33;96933.19;;;22.62;60.98
43701;BME280;58809;47.984;7.964;2023-05-09T11:04:05;96924.97;;;23.15;60.01
43701;BME280;58809;47.984;7.964;2023-05-09T11:07:25;96915.53;;;23.28;59.96
43701;BME280;58809;47.984;7.964;2023-05-09T11:10:40;96916.06;;;23.35;59.14
43701;BME280;58809;47.984;7.964;2023-05-09T11:13:44;96888.28;;;23.09;59.71
43701;BME280;58809;47.984;7.964;2023-05-09T11:16:57;96901.47;;;23.56;59.05
43701;BME280;58809;47.984;7.964;2023-05-09T11:20:02;96900.13;;;23.33;58.78
43701;BME280;58809;47.984;7.964;2023-05-09T11:23:04;96892.84;;;23.44;58.60
43701;BME280;58809;47.984;7.964;2023-05-09T11:26:07;96879.91;;;23.31;58.88
43701;BME280;58809;47.984;7.964;2023-05-09T11:29:09;96888.50;;;23.58;57.78
43701;BME280;58809;47.984;7.964;2023-05-09T11:32:12;96869.63;;;23.22;58.21
43701;BME280;58809;47.984;7.964;2023-05-09T11:35:18;96872.06;;;23.39;58.12
43701;BME280;58809;47.984;7.964;2023-05-09T11:38:21;96861.81;;;23.36;57.43
43701;BME280;58809;47.984;7.964;2023-05-09T11:41:23;96864.19;;;23.63;57.17
43701;BME280;58809;47.984;7.964;2023-05-09T11:44:26;96855.97;;;24.10;56.85
43701;BME280;58809;47.984;7.964;2023-05-09T11:47:28;96854.22;;;23.79;56.38
43701;BME280;58809;47.984;7.964;2023-05-09T11:50:31;96850.75;;;23.43;56.64
43701;BME280;58809;47.984;7.964;2023-05-09T11:53:33;96838.50;;;23.76;56.46
43701;BME280;58809;47.984;7.964;2023-05-09T11:56:37;96834.88;;;24.17;56.13
43701;BME280;58809;47.984;7.964;2023-05-09T11:59:39;96837.69;;;24.46;55.79
43701;BME280;58809;47.984;7.964;2023-05-09T12:02:42;96834.53;;;24.78;55.49
43701;BME280;58809;47.984;7.964;2023-05-09T12:05:47;96825.91;;;24.76;55.34
43701;BME280;58809;47.984;7.964;2023-05-09T12:08:48;96817.81;;;24.71;55.80
43701;BME280;58809;47.984;7.964;2023-05-09T12:11:50;96817.31;;;24.64;55.63
43701;BME280;58809;47.984;7.964;2023-05-09T12:14:52;96815.94;;;24.67;55.84
43701;BME280;58809;47.984;7.964;2023-05-09T12:18:01;96805.97;;;24.62;54.76
43701;BME280;58809;47.984;7.964;2023-05-09T12:21:04;96801.63;;;24.66;54.51
43701;BME280;58809;47.984;7.964;2023-05-09T12:24:07;96796.31;;;24.46;54.57
43701;BME280;58809;47.984;7.964;2023-05-09T12:27:09;96790.94;;;24.40;54.75
43701;BME280;58809;47.984;7.964;2023-05-09T12:30:11;96791.69;;;24.56;53.80
43701;BME280;58809;47.984;7.964;2023-05-09T12:33:14;96781.88;;;24.66;53.55
43701;BME280;58809;47.984;7.964;2023-05-09T12:36:16;96779.09;;;25.05;53.45
43701;BME280;58809;47.984;7.964;2023-05-09T12:39:19;96780.25;;;24.99;53.49
43701;BME280;58809;47.984;7.964;2023-05-09T12:42:22;96767.28;;;24.96;53.59
43701;BME280;58809;47.984;7.964;2023-05-09T12:45:27;96765.19;;;25.17;53.17
43701;BME280;58809;47.984;7.964;2023-05-09T12:48:33;96760.31;;;25.19;53.59
43701;BME280;58809;47.984;7.964;2023-05-09T12:51:35;96756.94;;;25.03;53.93
43701;BME280;58809;47.984;7.964;2023-05-09T12:54:36;96753.78;;;25.20;53.64
43701;BME280;58809;47.984;7.964;2023-05-09T12:57:39;96744.09;;;25.14;53.60
43701;BME280;58809;47.984;7.964;2023-05-09T13:00:42;96755.22;;;25.42;53.76
43701;BME280;58809;47.984;7.964;2023-05-09T13:03:50;96747.84;;;25.47;53.54
43701;BME280;58809;47.984;7.964;2023-05-09T13:06:54;96749.38;;;25.29;53.17
43701;BME280;58809;47.984;7.964;2023-05-09T13:09:56;96747.44;;;25.06;52.68
43701;BME280;58809;47.984;7.964;2023-05-09T13:12:57;96745.19;;;24.84;53.16
43701;BME280;58809;47.984;7.964;2023-05-09T13:15:59;96731.38;;;24.85;53.78
43701;BME280;58809;47.984;7.964;2023-05-09T13:19:00;96732.09;;;24.67;53.77
43701;BME280;58809;47.984;7.964;2023-05-09T13:22:02;96720.44;;;24.27;54.14
43701;BME280;58809;47.984;7.964;2023-05-09T13:25:04;96719.25;;;24.04;54.45
43701;BME280;58809;47.984;7.964;2023-05-09T13:28:06;96711.91;;;23.59;55.08
43701;BME280;58809;47.984;7.964;2023-05-09T13:31:09;96709.31;;;23.23;55.89
43701;BME280;58809;47.984;7.964;2023-05-09T13:34:10;96706.63;;;23.03;56.56
43701;BME280;58809;47.984;7.964;2023-05-09T13:37:12;96700.72;;;22.96;58.21
43701;BME280;58809;47.984;7.964;2023-05-09T13:40:14;96708.00;;;22.75;59.91
43701;BME280;58809;47.984;7.964;2023-05-09T13:43:15;96691.84;;;22.75;60.20
43701;BME280;58809;47.984;7.964;2023-05-09T13:46:17;96692.09;;;22.83;60.18
43701;BME280;58809;47.984;7.964;2023-05-09T13:49:19;96691.53;;;23.02;60.92
43701;BME280;58809;47.984;7.964;2023-05-09T13:52:20;96691.53;;;22.97;62.95
43701;BME280;58809;47.984;7.964;2023-05-09T13:55:22;96688.03;;;23.01;62.08
43701;BME280;58809;47.984;7.964;2023-05-09T13:58:26;96685.59;;;22.95;61.12
43701;BME280;58809;47.984;7.964;2023-05-09T14:01:27;96683.78;;;22.54;60.76
43701;BME280;58809;47.984;7.964;2023-05-09T14:04:30;96685.38;;;22.24;60.93
43701;BME280;58809;47.984;7.964;2023-05-09T14:07:34;96681.00;;;21.87;62.11
43701;BME280;58809;47.984;7.964;2023-05-09T14:10:36;96681.47;;;21.64;62.41
43701;BME280;58809;47.984;7.964;2023-05-09T14:13:38;96672.94;;;21.24;63.23
43701;BME280;58809;47.984;7.964;2023-05-09T14:16:39;96673.00;;;20.82;65.50
43701;BME280;58809;47.984;7.964;2023-05-09T14:19:41;96665.91;;;20.65;66.29
43701;BME280;58809;47.984;7.964;2023-05-09T14:22:42;96664.56;;;20.63;67.69
43701;BME280;58809;47.984;7.964;2023-05-09T14:25:44;96656.59;;;20.46;70.86
43701;BME280;58809;47.984;7.964;2023-05-09T14:28:45;96659.91;;;20.26;75.07
43701;BME280;58809;47.984;7.964;2023-05-09T14:31:47;96659.81;;;20.10;76.86
43701;BME280;58809;47.984;7.964;2023-05-09T14:34:48;96664.50;;;19.93;79.24
43701;BME280;58809;47.984;7.964;2023-05-09T14:37:50;96658.00;;;19.67;81.64
43701;BME280;58809;47.984;7.964;2023-05-09T14:40:51;96657.31;;;19.49;83.96
43701;BME280;58809;47.984;7.964;2023-05-09T14:43:53;96653.13;;;19.36;85.53
43701;BME280;58809;47.984;7.964;2023-05-09T14:46:54;96654.75;;;19.15;86.07
43701;BME280;58809;47.984;7.964;2023-05-09T14:49:56;96650.00;;;19.00;87.20
43701;BME280;58809;47.984;7.964;2023-05-09T14:52:58;96658.28;;;18.99;87.20
43701;BME280;58809;47.984;7.964;2023-05-09T14:56:01;96673.19;;;18.90;85.90
43701;BME280;58809;47.984;7.964;2023-05-09T14:59:02;96682.69;;;18.63;86.29
43701;BME280;58809;47.984;7.964;2023-05-09T15:02:04;96704.72;;;17.86;90.06
43701;BME280;58809;47.984;7.964;2023-05-09T15:05:06;96691.63;;;16.38;100.00
43701;BME280;58809;47.984;7.964;2023-05-09T15:08:08;96676.63;;;16.13;100.00
43701;BME280;58809;47.984;7.964;2023-05-09T15:11:09;96668.03;;;16.11;100.00
43701;BME280;58809;47.984;7.964;2023-05-09T15:14:11;96671.97;;;16.20;100.00
43701;BME280;58809;47.984;7.964;2023-05-09T15:17:13;96664.91;;;16.14;100.00
43701;BME280;58809;47.984;7.964;2023-05-09T15:20:16;96652.47;;;16.08;100.00
43701;BME280;58809;47.984;7.964;2023-05-09T15:23:18;96660.72;;;16.30;100.00
43701;BME280;58809;47.984;7.964;2023-05-09T15:26:20;96664.13;;;16.49;100.00
43701;BME280;58809;47.984;7.964;2023-05-09T15:29:22;96654.84;;;16.63;100.00
43701;BME280;58809;47.984;7.964;2023-05-09T15:32:24;96661.69;;;16.71;100.00
43701;BME280;58809;47.984;7.964;2023-05-09T15:35:25;96659.13;;;16.88;100.00
43701;BME280;58809;47.984;7.964;2023-05-09T15:38:27;96666.19;;;17.06;100.00
43701;BME280;58809;47.984;7.964;2023-05-09T15:41:29;96667.97;;;17.00;100.00
43701;BME280;58809;47.984;7.964;2023-05-09T15:44:30;96673.06;;;17.02;100.00
43701;BME280;58809;47.984;7.964;2023-05-09T15:47:32;96677.84;;;16.88;100.00
43701;BME280;58809;47.984;7.964;2023-05-09T15:50:34;96693.97;;;16.58;100.00
43701;BME280;58809;47.984;7.964;2023-05-09T15:53:35;96687.50;;;16.00;100.00
43701;BME280;58809;47.984;7.964;2023-05-09T15:56:37;96663.19;;;15.10;100.00
43701;BME280;58809;47.984;7.964;2023-05-09T15:59:38;96693.78;;;14.89;100.00
43701;BME280;58809;47.984;7.964;2023-05-09T16:02:40;96693.38;;;14.67;100.00
43701;BME280;58809;47.984;7.964;2023-05-09T16:05:44;96710.03;;;14.31;100.00
43701;BME280;58809;47.984;7.964;2023-05-09T16:08:46;96709.81;;;14.00;100.00
43701;BME280;58809;47.984;7.964;2023-05-09T16:11:47;96702.53;;;13.89;100.00